createdAt,value
2023-02-13T00:00:24.869Z,2.40
2023-02-13T00:02:52.117Z,2.47
2023-02-13T00:05:19.639Z,2.00
2023-02-13T00:07:46.651Z,1.65
2023-02-13T00:10:13.734Z,1.50
2023-02-13T00:12:41.085Z,1.77
2023-02-13T00:15:09.453Z,2.00
2023-02-13T00:17:36.743Z,1.52
2023-02-13T00:20:04.758Z,1.67
2023-02-13T00:22:36.111Z,2.00
2023-02-13T00:25:04.848Z,2.13
2023-02-13T00:27:31.913Z,1.80
2023-02-13T00:30:00.189Z,2.03
2023-02-13T00:32:27.269Z,1.70
2023-02-13T00:34:56.619Z,1.67
2023-02-13T00:37:23.799Z,1.40
2023-02-13T00:39:53.083Z,1.92
2023-02-13T00:42:24.158Z,1.45
2023-02-13T00:44:51.453Z,1.67
2023-02-13T00:47:19.007Z,1.38
2023-02-13T00:49:46.121Z,1.90
2023-02-13T00:52:13.195Z,1.42
2023-02-13T00:54:40.239Z,1.73
2023-02-13T00:57:07.275Z,1.73
2023-02-13T00:59:35.199Z,2.28
2023-02-13T01:02:02.226Z,1.80
2023-02-13T01:04:29.429Z,2.25
2023-02-13T01:06:58.128Z,2.15
2023-02-13T01:09:25.696Z,2.33
2023-02-13T01:11:52.981Z,1.92
2023-02-13T01:14:20.258Z,2.13
2023-02-13T01:16:49.542Z,2.00
2023-02-13T01:19:16.913Z,1.75
2023-02-13T01:21:44.622Z,1.58
2023-02-13T01:24:11.718Z,1.77
2023-02-13T01:26:38.955Z,2.00
2023-02-13T01:29:06.135Z,1.90
2023-02-13T01:31:33.621Z,1.52
2023-02-13T01:34:00.787Z,1.60
2023-02-13T01:36:28.057Z,1.40
2023-02-13T01:38:57.400Z,1.45
2023-02-13T01:41:26.096Z,1.70
2023-02-13T01:43:54.564Z,1.98
2023-02-13T01:46:34.036Z,1.73
2023-02-13T01:49:15.799Z,1.85
2023-02-13T01:51:43.888Z,1.40
2023-02-13T01:54:17.403Z,1.73
2023-02-13T01:56:54.196Z,1.73
2023-02-13T01:59:33.306Z,1.55
2023-02-13T02:02:01.730Z,1.63
2023-02-13T02:04:34.092Z,1.60
2023-02-13T02:07:18.001Z,1.80
2023-02-13T02:09:47.708Z,2.05
2023-02-13T02:12:29.511Z,1.85
2023-02-13T02:14:59.625Z,1.80
2023-02-13T02:17:32.461Z,2.10
2023-02-13T02:20:30.130Z,2.30
2023-02-13T02:23:37.080Z,1.52
2023-02-13T02:26:16.083Z,1.52
2023-02-13T02:29:18.664Z,1.60
2023-02-13T02:32:27.359Z,1.90
2023-02-13T02:35:19.239Z,1.60
2023-02-13T02:38:09.206Z,1.55
2023-02-13T02:40:58.831Z,1.10
2023-02-13T02:43:55.955Z,2.08
2023-02-13T02:46:36.453Z,1.40
2023-02-13T02:49:47.983Z,1.58
2023-02-13T02:55:09.379Z,2.40
2023-02-13T02:58:14.145Z,2.38
2023-02-13T03:01:02.046Z,1.75
2023-02-13T03:03:49.317Z,2.40
2023-02-13T03:06:24.515Z,2.97
2023-02-13T03:09:14.556Z,2.00
2023-02-13T03:12:03.312Z,2.70
2023-02-13T03:14:30.454Z,2.50
2023-02-13T03:17:17.573Z,3.00
2023-02-13T03:20:09.377Z,2.47
2023-02-13T03:22:55.822Z,2.65
2023-02-13T03:25:34.571Z,3.00
2023-02-13T03:28:46.610Z,2.33
2023-02-13T03:31:35.018Z,2.67
2023-02-13T03:34:07.017Z,1.55
2023-02-13T03:37:08.315Z,1.58
2023-02-13T03:40:09.948Z,2.80
2023-02-13T03:42:52.086Z,2.05
2023-02-13T03:45:47.734Z,1.48
2023-02-13T03:48:36.932Z,2.10
2023-02-13T03:51:06.717Z,1.77
2023-02-13T03:53:37.556Z,2.25
2023-02-13T03:56:23.972Z,2.50
2023-02-13T03:59:13.311Z,1.70
2023-02-13T04:01:44.791Z,1.92
2023-02-13T04:04:25.673Z,1.92
2023-02-13T04:06:57.275Z,1.75
2023-02-13T04:09:26.511Z,2.00
2023-02-13T04:12:01.720Z,2.03
2023-02-13T04:14:55.357Z,1.75
2023-02-13T04:17:28.757Z,1.80
2023-02-13T04:19:56.356Z,1.75
2023-02-13T04:22:23.351Z,2.08
2023-02-13T04:24:50.751Z,1.45
2023-02-13T04:27:18.463Z,1.58
2023-02-13T04:29:45.477Z,2.00
2023-02-13T04:32:14.317Z,1.23
2023-02-13T04:34:41.366Z,1.40
2023-02-13T04:37:08.987Z,1.10
2023-02-13T04:39:36.115Z,1.50
2023-02-13T04:42:03.179Z,1.25
2023-02-13T04:44:30.286Z,1.67
2023-02-13T04:46:57.325Z,1.67
2023-02-13T04:49:24.315Z,1.30
2023-02-13T04:51:51.339Z,2.08
2023-02-13T04:54:18.368Z,1.73
2023-02-13T04:56:45.531Z,2.00
2023-02-13T04:59:12.596Z,1.65
2023-02-13T05:01:39.690Z,1.50
2023-02-13T05:04:06.862Z,1.83
2023-02-13T05:06:33.909Z,1.45
2023-02-13T05:09:00.975Z,1.98
2023-02-13T05:11:27.974Z,1.65
2023-02-13T05:13:55.204Z,1.25
2023-02-13T05:16:22.281Z,1.10
2023-02-13T05:18:49.444Z,1.30
2023-02-13T05:21:34.877Z,1.30
2023-02-13T05:24:01.879Z,1.60
2023-02-13T05:26:28.949Z,1.40
2023-02-13T05:29:14.415Z,2.13
2023-02-13T05:31:41.560Z,1.88
2023-02-13T05:34:08.861Z,1.33
2023-02-13T05:36:35.922Z,1.67
2023-02-13T05:39:02.925Z,1.15
2023-02-13T05:41:30.051Z,1.50
2023-02-13T05:43:57.112Z,1.20
2023-02-13T05:46:24.246Z,1.10
2023-02-13T05:48:52.306Z,1.50
2023-02-13T05:51:22.505Z,1.70
2023-02-13T05:53:49.498Z,1.70
2023-02-13T05:56:16.607Z,1.70
2023-02-13T05:58:45.196Z,1.95
2023-02-13T06:01:13.230Z,1.55
2023-02-13T06:03:42.967Z,1.25
2023-02-13T06:06:10.058Z,1.45
2023-02-13T06:08:37.137Z,1.73
2023-02-13T06:11:04.902Z,1.80
2023-02-13T06:13:32.163Z,1.60
2023-02-13T06:15:59.235Z,1.63
2023-02-13T06:18:26.325Z,1.77
2023-02-13T06:20:53.377Z,1.90
2023-02-13T06:23:20.509Z,1.35
2023-02-13T06:25:47.531Z,1.20
2023-02-13T06:28:14.627Z,1.77
2023-02-13T06:30:41.713Z,1.73
2023-02-13T06:33:08.803Z,0.95
2023-02-13T06:35:35.873Z,1.98
2023-02-13T06:38:03.003Z,2.00
2023-02-13T06:40:30.082Z,1.73
2023-02-13T06:42:57.166Z,1.83
2023-02-13T06:45:24.207Z,2.00
2023-02-13T06:47:51.942Z,1.58
2023-02-13T06:50:19.146Z,2.00
2023-02-13T06:52:48.173Z,2.50
2023-02-13T06:55:16.233Z,1.55
2023-02-13T06:57:44.849Z,1.73
2023-02-13T07:00:14.023Z,2.33
2023-02-13T07:02:42.081Z,2.60
2023-02-13T07:05:09.998Z,1.92
2023-02-13T07:07:39.493Z,1.98
2023-02-13T07:10:08.892Z,2.22
2023-02-13T07:12:36.868Z,1.50
2023-02-13T07:15:04.891Z,1.80
2023-02-13T07:17:32.567Z,1.98
2023-02-13T07:19:59.632Z,2.13
2023-02-13T07:22:26.659Z,1.95
2023-02-13T07:24:53.767Z,2.13
2023-02-13T07:27:20.775Z,2.42
2023-02-13T07:29:47.790Z,2.10
2023-02-13T07:32:15.256Z,2.55
2023-02-13T07:34:55.866Z,1.95
2023-02-13T07:37:29.165Z,2.15
2023-02-13T07:39:56.209Z,2.22
2023-02-13T07:42:23.347Z,3.13
2023-02-13T07:44:50.466Z,2.40
2023-02-13T07:47:19.796Z,2.40
2023-02-13T07:49:47.392Z,2.08
2023-02-13T07:52:14.493Z,2.30
2023-02-13T07:54:47.718Z,1.90
2023-02-13T07:57:16.400Z,2.47
2023-02-13T07:59:43.805Z,2.20
2023-02-13T08:02:13.392Z,2.08
2023-02-13T08:04:41.496Z,2.22
2023-02-13T08:07:08.624Z,2.15
2023-02-13T08:09:54.045Z,1.25
2023-02-13T08:12:21.102Z,2.45
2023-02-13T08:14:48.190Z,2.90
2023-02-13T08:17:15.292Z,2.38
2023-02-13T08:19:42.368Z,2.80
2023-02-13T08:22:09.774Z,2.70
2023-02-13T08:24:36.863Z,2.63
2023-02-13T08:27:04.101Z,2.60
2023-02-13T08:29:31.126Z,2.30
2023-02-13T08:31:58.250Z,2.67
2023-02-13T08:34:25.393Z,2.33
2023-02-13T08:36:52.405Z,2.53
2023-02-13T08:39:19.460Z,2.30
2023-02-13T08:41:46.589Z,2.35
2023-02-13T08:44:13.724Z,2.10
2023-02-13T08:46:40.772Z,2.63
2023-02-13T08:49:07.868Z,2.47
2023-02-13T08:51:34.982Z,2.90
2023-02-13T08:54:02.063Z,2.20
2023-02-13T08:56:29.137Z,2.25
2023-02-13T08:58:56.227Z,2.40
2023-02-13T09:01:24.364Z,1.98
2023-02-13T09:03:51.595Z,2.50
2023-02-13T09:06:18.710Z,2.80
2023-02-13T09:08:45.695Z,3.28
2023-02-13T09:11:12.785Z,3.10
2023-02-13T09:13:39.936Z,2.72
2023-02-13T09:16:08.244Z,2.40
2023-02-13T09:18:35.584Z,3.00
2023-02-13T09:21:05.744Z,2.95
2023-02-13T09:23:38.713Z,3.30
2023-02-13T09:26:08.566Z,2.88
2023-02-13T09:31:17.108Z,2.83
2023-02-13T09:33:45.906Z,3.45
2023-02-13T09:36:22.165Z,2.63
2023-02-13T09:38:53.271Z,3.30
2023-02-13T09:41:21.651Z,3.20
2023-02-13T09:44:34.053Z,2.90
2023-02-13T09:47:19.747Z,2.83
2023-02-13T09:49:54.448Z,2.92
2023-02-13T09:52:21.860Z,4.07
2023-02-13T09:54:48.854Z,3.10
2023-02-13T09:57:36.655Z,2.67
2023-02-13T10:00:19.865Z,2.95
2023-02-13T10:02:46.879Z,2.80
2023-02-13T10:05:57.962Z,2.70
2023-02-13T10:08:43.573Z,2.72
2023-02-13T10:11:47.241Z,3.40
2023-02-13T10:14:28.518Z,2.60
2023-02-13T10:17:22.013Z,3.90
2023-02-13T10:20:03.719Z,3.10
2023-02-13T10:22:36.056Z,3.85
2023-02-13T10:25:35.250Z,3.75
2023-02-13T10:30:49.294Z,3.30
2023-02-13T10:33:26.273Z,2.78
2023-02-13T10:36:11.962Z,2.72
2023-02-13T10:38:52.137Z,2.90
2023-02-13T10:41:49.813Z,2.47
2023-02-13T10:44:33.232Z,2.30
2023-02-13T10:47:00.175Z,3.13
2023-02-13T10:49:31.681Z,3.38
2023-02-13T10:52:17.299Z,3.00
2023-02-13T10:54:56.482Z,2.90
2023-02-13T10:57:37.999Z,2.95
2023-02-13T11:02:38.874Z,3.28
2023-02-13T11:05:23.458Z,3.17
2023-02-13T11:07:50.639Z,2.83
2023-02-13T11:10:21.854Z,2.80
2023-02-13T11:12:50.187Z,2.80
2023-02-13T11:15:32.624Z,2.92
2023-02-13T11:18:22.421Z,3.33
2023-02-13T11:21:02.620Z,2.35
2023-02-13T11:23:32.327Z,2.72
2023-02-13T11:28:32.794Z,2.95
2023-02-13T11:31:19.635Z,2.92
2023-02-13T11:33:46.674Z,3.10
2023-02-13T11:36:24.598Z,3.35
2023-02-13T11:39:05.816Z,3.00
2023-02-13T11:41:42.647Z,3.40
2023-02-13T11:44:32.555Z,3.45
2023-02-13T11:47:05.792Z,3.03
2023-02-13T11:49:39.208Z,2.80
2023-02-13T11:52:10.855Z,2.13
2023-02-13T11:54:43.307Z,3.30
2023-02-13T11:57:16.351Z,2.85
2023-02-13T11:59:46.620Z,3.33
2023-02-13T12:02:29.025Z,3.08
2023-02-13T12:05:17.986Z,2.90
2023-02-13T12:07:46.738Z,2.88
2023-02-13T12:10:19.867Z,2.78
2023-02-13T12:13:11.547Z,2.83
2023-02-13T12:15:38.905Z,3.03
2023-02-13T12:18:08.840Z,3.17
2023-02-13T12:21:09.446Z,3.40
2023-02-13T12:23:42.262Z,3.40
2023-02-13T12:26:27.517Z,3.30
2023-02-13T12:29:00.548Z,3.17
2023-02-13T12:31:33.386Z,3.20
2023-02-13T12:34:12.050Z,3.05
2023-02-13T12:37:05.364Z,2.97
2023-02-13T12:39:40.090Z,3.35
2023-02-13T12:42:32.755Z,3.13
2023-02-13T12:45:11.938Z,3.60
2023-02-13T12:48:00.263Z,4.63
2023-02-13T12:50:30.000Z,3.20
2023-02-13T12:55:31.353Z,3.22
2023-02-13T12:58:47.228Z,3.28
2023-02-13T13:01:41.857Z,3.40
2023-02-13T13:04:08.867Z,2.25
2023-02-13T13:06:52.051Z,2.78
2023-02-13T13:09:31.090Z,2.80
2023-02-13T13:12:26.124Z,1.98
2023-02-13T13:15:07.611Z,1.77
2023-02-13T13:20:14.593Z,2.30
2023-02-13T13:22:53.832Z,2.05
2023-02-13T13:25:39.332Z,2.85
2023-02-13T13:28:19.472Z,2.33
2023-02-13T13:30:47.797Z,4.03
2023-02-13T13:33:21.031Z,3.88
2023-02-13T13:35:58.512Z,2.20
2023-02-13T13:39:02.205Z,2.25
2023-02-13T13:41:44.278Z,2.83
2023-02-13T13:44:16.995Z,2.85
2023-02-13T13:46:53.389Z,2.47
2023-02-13T13:49:45.990Z,2.47
2023-02-13T13:52:30.180Z,2.35
2023-02-13T13:55:00.675Z,2.58
2023-02-13T13:57:48.456Z,2.70
2023-02-13T14:00:17.006Z,2.40
2023-02-13T14:02:47.758Z,2.35
2023-02-13T14:05:20.922Z,2.50
2023-02-13T14:07:51.023Z,2.35
2023-02-13T14:10:21.016Z,2.78
2023-02-13T14:13:09.458Z,2.50
2023-02-13T14:15:44.799Z,2.50
2023-02-13T14:18:14.705Z,2.90
2023-02-13T14:23:26.859Z,3.00
2023-02-13T14:26:15.501Z,2.97
2023-02-13T14:28:48.184Z,2.97
2023-02-13T14:31:35.512Z,2.63
2023-02-13T14:34:09.323Z,3.00
2023-02-13T14:36:48.802Z,2.22
2023-02-13T14:39:28.149Z,3.13
2023-02-13T14:41:55.170Z,3.10
2023-02-13T14:44:43.886Z,2.75
2023-02-13T14:47:33.782Z,3.20
2023-02-13T14:50:03.885Z,3.50
2023-02-13T14:52:38.689Z,3.42
2023-02-13T14:55:17.159Z,2.60
2023-02-13T14:58:05.523Z,2.70
2023-02-13T15:00:43.759Z,2.90
2023-02-13T15:03:22.793Z,2.53
2023-02-13T15:05:56.987Z,2.83
2023-02-13T15:08:34.677Z,2.70
2023-02-13T15:11:01.829Z,2.72
2023-02-13T15:13:40.852Z,3.05
2023-02-13T15:16:12.089Z,3.15
2023-02-13T15:18:48.773Z,3.25
2023-02-13T15:21:19.691Z,3.22
2023-02-13T15:23:55.746Z,3.05
2023-02-13T15:26:26.479Z,3.40
2023-02-13T15:29:02.370Z,2.83
2023-02-13T15:31:33.850Z,3.30
2023-02-13T15:34:02.051Z,3.03
2023-02-13T15:36:36.493Z,3.85
2023-02-13T15:39:09.786Z,3.72
2023-02-13T15:41:46.628Z,3.35
2023-02-13T15:44:23.898Z,3.25
2023-02-13T15:46:53.529Z,3.33
2023-02-13T15:51:50.733Z,3.35
2023-02-13T15:54:31.252Z,3.25
2023-02-13T15:57:01.711Z,3.63
2023-02-13T15:59:34.907Z,3.78
2023-02-13T16:02:03.533Z,3.65
2023-02-13T16:04:30.988Z,3.90
2023-02-13T16:06:59.040Z,3.65
2023-02-13T16:09:34.232Z,4.30
2023-02-13T16:12:24.065Z,4.38
2023-02-13T16:15:02.589Z,3.17
2023-02-13T16:17:37.305Z,3.15
2023-02-13T16:20:13.598Z,3.60
2023-02-13T16:22:51.145Z,4.18
2023-02-13T16:25:20.968Z,4.18
2023-02-13T16:27:52.648Z,3.03
2023-02-13T16:30:47.480Z,3.47
2023-02-13T16:33:15.512Z,4.28
2023-02-13T16:35:45.491Z,3.90
2023-02-13T16:38:33.523Z,3.90
2023-02-13T16:41:11.232Z,3.90
2023-02-13T16:43:49.673Z,3.92
2023-02-13T16:46:19.450Z,3.83
2023-02-13T16:49:01.578Z,2.83
2023-02-13T16:51:31.579Z,4.78
2023-02-13T16:54:25.632Z,3.42
2023-02-13T16:56:57.423Z,3.97
2023-02-13T16:59:52.321Z,3.13
2023-02-13T17:02:37.616Z,3.30
2023-02-13T17:05:07.758Z,2.88
2023-02-13T17:07:48.316Z,3.45
2023-02-13T17:10:20.097Z,3.70
2023-02-13T17:12:51.527Z,3.55
2023-02-13T17:15:21.957Z,3.67
2023-02-13T17:17:53.881Z,3.50
2023-02-13T17:20:27.066Z,3.17
2023-02-13T17:22:56.400Z,3.65
2023-02-13T17:25:35.898Z,3.28
2023-02-13T17:28:15.144Z,2.78
2023-02-13T17:30:43.681Z,3.25
2023-02-13T17:33:23.081Z,3.53
2023-02-13T17:35:54.142Z,2.65
2023-02-13T17:38:21.914Z,3.25
2023-02-13T17:40:49.488Z,3.10
2023-02-13T17:43:18.636Z,3.38
2023-02-13T17:45:46.957Z,3.38
2023-02-13T17:48:19.734Z,3.92
2023-02-13T17:50:55.789Z,3.15
2023-02-13T17:53:30.504Z,3.63
2023-02-13T17:56:01.793Z,3.10
2023-02-13T17:58:28.832Z,3.65
2023-02-13T18:01:01.106Z,3.08
2023-02-13T18:03:30.346Z,3.17
2023-02-13T18:06:00.237Z,3.80
2023-02-13T18:08:27.329Z,3.05
2023-02-13T18:10:57.249Z,3.75
2023-02-13T18:13:24.504Z,3.50
2023-02-13T18:15:54.012Z,2.63
2023-02-13T18:18:23.190Z,3.92
2023-02-13T18:20:55.957Z,3.60
2023-02-13T18:23:24.940Z,3.72
2023-02-13T18:25:54.522Z,3.70
2023-02-13T18:28:23.476Z,4.00
2023-02-13T18:30:50.723Z,4.05
2023-02-13T18:33:20.656Z,3.55
2023-02-13T18:35:47.824Z,3.60
2023-02-13T18:38:19.838Z,3.95
2023-02-13T18:40:51.954Z,3.90
2023-02-13T18:43:22.208Z,3.50
2023-02-13T18:45:49.435Z,3.63
2023-02-13T18:48:16.632Z,3.60
2023-02-13T18:50:43.751Z,4.13
2023-02-13T18:53:11.197Z,3.55
2023-02-13T18:55:38.356Z,4.00
2023-02-13T18:58:05.425Z,3.88
2023-02-13T19:00:32.902Z,4.07
2023-02-13T19:03:00.363Z,4.43
2023-02-13T19:05:27.581Z,4.13
2023-02-13T19:07:54.625Z,3.55
2023-02-13T19:10:21.742Z,4.53
2023-02-13T19:12:49.071Z,4.43
2023-02-13T19:15:16.742Z,4.20
2023-02-13T19:17:43.953Z,3.47
2023-02-13T19:20:12.977Z,3.60
2023-02-13T19:22:40.857Z,3.85
2023-02-13T19:25:08.203Z,4.15
2023-02-13T19:27:38.357Z,2.63
2023-02-13T19:30:07.984Z,3.33
2023-02-13T19:32:35.945Z,3.55
2023-02-13T19:35:02.994Z,3.88
2023-02-13T19:37:35.788Z,2.90
2023-02-13T19:40:09.826Z,3.13
2023-02-13T19:42:38.156Z,2.63
2023-02-13T19:45:07.058Z,3.35
2023-02-13T19:47:34.258Z,3.45
2023-02-13T19:50:01.311Z,3.25
2023-02-13T19:52:28.407Z,3.33
2023-02-13T19:54:55.553Z,3.33
2023-02-13T19:57:22.547Z,3.42
2023-02-13T19:59:49.561Z,2.83
2023-02-13T20:02:17.431Z,3.67
2023-02-13T20:04:44.728Z,3.72
2023-02-13T20:07:11.753Z,3.80
2023-02-13T20:09:40.197Z,3.38
2023-02-13T20:12:07.836Z,3.17
2023-02-13T20:14:34.866Z,3.75
2023-02-13T20:17:02.086Z,3.40
2023-02-13T20:19:29.445Z,3.30
2023-02-13T20:21:56.492Z,3.63
2023-02-13T20:24:23.545Z,3.40
2023-02-13T20:26:50.662Z,3.22
2023-02-13T20:29:17.844Z,3.20
2023-02-13T20:31:45.056Z,3.10
2023-02-13T20:34:12.200Z,3.28
2023-02-13T20:36:39.267Z,3.33
2023-02-13T20:39:07.803Z,2.53
2023-02-13T20:41:37.142Z,3.22
2023-02-13T20:44:07.523Z,3.30
2023-02-13T20:46:37.102Z,2.60
2023-02-13T20:49:04.780Z,2.72
2023-02-13T20:51:31.962Z,3.08
2023-02-13T20:54:00.459Z,2.30
2023-02-13T20:56:28.434Z,2.60
2023-02-13T20:58:58.008Z,2.47
2023-02-13T21:01:25.028Z,2.22
2023-02-13T21:03:54.969Z,2.08
2023-02-13T21:06:24.485Z,2.33
2023-02-13T21:08:51.605Z,2.35
2023-02-13T21:11:19.420Z,2.00
2023-02-13T21:13:47.344Z,1.55
2023-02-13T21:16:20.376Z,1.92
2023-02-13T21:18:49.662Z,1.70
2023-02-13T21:21:17.541Z,1.67
2023-02-13T21:23:44.640Z,1.70
2023-02-13T21:26:15.048Z,1.58
2023-02-13T21:28:43.747Z,2.30
2023-02-13T21:31:13.833Z,1.90
2023-02-13T21:33:40.982Z,1.73
2023-02-13T21:36:10.146Z,1.98
2023-02-13T21:38:38.446Z,1.90
2023-02-13T21:41:11.312Z,1.75
2023-02-13T21:43:38.510Z,1.50
2023-02-13T21:46:14.173Z,1.80
2023-02-13T21:48:42.172Z,1.90
2023-02-13T21:51:14.994Z,1.33
2023-02-13T21:53:42.653Z,1.85
2023-02-13T21:56:15.126Z,1.45
2023-02-13T21:58:43.641Z,1.58
2023-02-13T22:01:26.114Z,1.70
2023-02-13T22:04:00.793Z,1.27
2023-02-13T22:06:30.930Z,1.65
2023-02-13T22:11:27.362Z,2.15
2023-02-13T22:13:56.729Z,1.75
2023-02-13T22:16:24.126Z,1.70
2023-02-13T22:18:51.439Z,1.73
2023-02-13T22:21:21.826Z,2.22
2023-02-13T22:23:49.933Z,2.90
2023-02-13T22:26:24.348Z,4.22
2023-02-13T22:28:52.472Z,5.53
2023-02-13T22:31:20.447Z,7.90
2023-02-13T22:33:55.352Z,7.93
2023-02-13T22:36:29.844Z,13.40
2023-02-13T22:38:56.845Z,9.00
2023-02-13T22:41:25.281Z,6.53
2023-02-13T22:43:52.946Z,6.20
2023-02-13T22:46:29.538Z,5.10
2023-02-13T22:48:57.027Z,2.67
2023-02-13T22:51:27.194Z,1.95
2023-02-13T22:53:55.958Z,1.60
2023-02-13T22:56:24.035Z,1.65
2023-02-13T22:58:51.267Z,1.67
2023-02-13T23:01:23.800Z,1.80
2023-02-13T23:03:51.055Z,1.40
2023-02-13T23:06:18.794Z,2.20
2023-02-13T23:08:46.181Z,2.47
2023-02-13T23:11:34.170Z,1.40
2023-02-13T23:14:01.978Z,1.58
2023-02-13T23:16:49.945Z,1.30
2023-02-13T23:19:17.186Z,1.20
2023-02-13T23:21:44.253Z,1.13
2023-02-13T23:24:11.419Z,1.08
2023-02-13T23:26:38.847Z,1.73
2023-02-13T23:29:06.042Z,1.27
2023-02-13T23:31:33.284Z,1.40
2023-02-13T23:34:00.404Z,1.10
2023-02-13T23:36:27.476Z,0.93
2023-02-13T23:38:54.535Z,1.30
2023-02-13T23:41:21.555Z,1.15
2023-02-13T23:43:48.616Z,1.63
2023-02-13T23:46:15.691Z,1.50
2023-02-13T23:48:42.835Z,1.60
2023-02-13T23:51:09.854Z,1.52
2023-02-13T23:53:36.945Z,1.17
2023-02-13T23:56:05.246Z,1.20
2023-02-13T23:58:32.315Z,1.55
